createdAt,value
2015-10-26T00:00:02.036Z,3.53
2015-10-26T00:00:14.333Z,3.59
2015-10-26T00:00:26.646Z,3.53
2015-10-26T00:00:38.943Z,3.5
2015-10-26T00:00:51.242Z,3.53
2015-10-26T00:01:03.555Z,3.53
2015-10-26T00:01:15.852Z,3.55
2015-10-26T00:01:28.180Z,3.55
2015-10-26T00:01:40.492Z,3.6
2015-10-26T00:01:52.808Z,3.53
2015-10-26T00:02:05.152Z,3.53
2015-10-26T00:02:17.480Z,3.51
2015-10-26T00:02:29.824Z,3.55
2015-10-26T00:02:42.120Z,3.5
2015-10-26T00:02:54.420Z,3.53
2015-10-26T00:03:06.733Z,3.48
2015-10-26T00:03:19.030Z,3.6
2015-10-26T00:03:31.327Z,3.48
2015-10-26T00:03:43.623Z,3.56
2015-10-26T00:03:55.939Z,3.53
2015-10-26T00:04:08.236Z,3.55
2015-10-26T00:04:20.564Z,3.5
2015-10-26T00:04:32.861Z,3.58
2015-10-26T00:04:45.173Z,3.63
2015-10-26T00:04:57.488Z,3.6
2015-10-26T00:05:09.800Z,3.62
2015-10-26T00:05:22.128Z,3.6
2015-10-26T00:05:34.441Z,3.5
2015-10-26T00:05:46.753Z,3.6
2015-10-26T00:05:59.085Z,3.5
2015-10-26T00:06:11.413Z,3.5
2015-10-26T00:06:23.741Z,3.58
2015-10-26T00:06:36.069Z,3.63
2015-10-26T00:06:48.366Z,3.55
2015-10-26T00:07:00.665Z,3.56
2015-10-26T00:07:12.962Z,3.65
2015-10-26T00:07:25.274Z,3.59
2015-10-26T00:07:37.587Z,3.62
2015-10-26T00:07:49.883Z,3.55
2015-10-26T00:08:02.184Z,3.56
2015-10-26T00:08:14.497Z,3.68
2015-10-26T00:08:26.794Z,3.55
2015-10-26T00:08:39.091Z,3.53
2015-10-26T00:08:51.403Z,3.66
2015-10-26T00:09:03.718Z,3.6
2015-10-26T00:09:16.030Z,3.62
2015-10-26T00:09:28.343Z,3.63
2015-10-26T00:09:40.655Z,3.62
2015-10-26T00:09:52.983Z,3.66
2015-10-26T00:10:05.313Z,3.69
2015-10-26T00:10:17.626Z,3.73
2015-10-26T00:10:29.938Z,3.66
2015-10-26T00:10:42.235Z,3.66
2015-10-26T00:10:54.532Z,3.77
2015-10-26T00:11:06.848Z,3.76
2015-10-26T00:11:19.144Z,3.73
2015-10-26T00:11:31.457Z,3.78
2015-10-26T00:11:43.754Z,3.74
2015-10-26T00:11:56.066Z,3.8
2015-10-26T00:12:08.382Z,3.81
2015-10-26T00:12:20.694Z,3.84
2015-10-26T00:12:33.022Z,3.81
2015-10-26T00:12:45.351Z,3.92
2015-10-26T00:12:57.679Z,3.91
2015-10-26T00:13:10.010Z,3.91
2015-10-26T00:13:22.338Z,3.95
2015-10-26T00:13:34.650Z,3.91
2015-10-26T00:13:46.947Z,3.94
2015-10-26T00:13:59.260Z,3.91
2015-10-26T00:14:11.560Z,3.87
2015-10-26T00:14:23.857Z,3.84
2015-10-26T00:14:36.185Z,3.91
2015-10-26T00:14:48.482Z,3.92
2015-10-26T00:15:00.794Z,3.98
2015-10-26T00:15:12.937Z,3.83
2015-10-26T00:15:25.249Z,3.91
2015-10-26T00:15:37.562Z,3.84
2015-10-26T00:15:49.874Z,3.78
2015-10-26T00:16:02.187Z,3.8
2015-10-26T00:16:14.533Z,3.81
2015-10-26T00:16:26.877Z,3.78
2015-10-26T00:16:39.174Z,3.77
2015-10-26T00:16:51.471Z,3.81
2015-10-26T00:17:03.768Z,3.81
2015-10-26T00:17:16.068Z,3.76
2015-10-26T00:17:28.365Z,3.74
2015-10-26T00:17:40.661Z,3.76
2015-10-26T00:17:52.974Z,3.76
2015-10-26T00:18:05.271Z,3.77
2015-10-26T00:18:17.586Z,3.8
2015-10-26T00:18:29.883Z,3.77
2015-10-26T00:18:42.164Z,3.73
2015-10-26T00:18:54.461Z,3.74
2015-10-26T00:19:06.758Z,3.77
2015-10-26T00:19:19.074Z,3.77
2015-10-26T00:19:31.371Z,3.78
2015-10-26T00:19:43.683Z,3.78
2015-10-26T00:19:56.011Z,3.74
2015-10-26T00:20:08.339Z,3.69
2015-10-26T00:20:20.669Z,3.7
2015-10-26T00:20:32.998Z,3.7
2015-10-26T00:20:45.294Z,3.7
2015-10-26T00:20:57.591Z,3.68
2015-10-26T00:21:09.904Z,3.68
2015-10-26T00:21:22.204Z,3.59
2015-10-26T00:21:34.579Z,3.68
2015-10-26T00:21:46.829Z,3.76
2015-10-26T00:21:59.126Z,3.56
2015-10-26T00:22:11.422Z,3.65
2015-10-26T00:22:23.738Z,3.66
2015-10-26T00:22:36.035Z,3.63
2015-10-26T00:22:48.332Z,3.62
2015-10-26T00:23:00.644Z,3.69
2015-10-26T00:23:12.941Z,3.7
2015-10-26T00:23:25.241Z,3.63
2015-10-26T00:23:37.538Z,3.81
2015-10-26T00:23:49.835Z,3.7
2015-10-26T00:24:02.163Z,3.77
2015-10-26T00:24:14.475Z,3.78
2015-10-26T00:24:26.791Z,3.78
2015-10-26T00:24:39.103Z,3.84
2015-10-26T00:24:51.431Z,3.81
2015-10-26T00:25:03.760Z,3.78
2015-10-26T00:25:16.088Z,3.87
2015-10-26T00:25:28.418Z,3.84
2015-10-26T00:25:40.762Z,3.88
2015-10-26T00:25:53.058Z,3.78
2015-10-26T00:26:05.371Z,3.8
2015-10-26T00:26:17.668Z,3.83
2015-10-26T00:26:29.968Z,3.84
2015-10-26T00:26:42.265Z,3.87
2015-10-26T00:26:54.561Z,3.92
2015-10-26T00:27:06.874Z,3.92
2015-10-26T00:27:19.171Z,3.84
2015-10-26T00:27:31.485Z,3.88
2015-10-26T00:27:43.782Z,3.88
2015-10-26T00:27:56.079Z,3.94
2015-10-26T00:28:08.376Z,3.95
2015-10-26T00:28:20.688Z,3.91
2015-10-26T00:28:33.005Z,3.95
2015-10-26T00:28:45.317Z,3.83
2015-10-26T00:28:57.614Z,3.88
2015-10-26T00:29:09.942Z,3.94
2015-10-26T00:29:22.255Z,3.88
2015-10-26T00:29:34.554Z,3.92
2015-10-26T00:29:46.851Z,3.92
2015-10-26T00:29:59.148Z,3.87
2015-10-26T00:30:11.460Z,3.86
2015-10-26T00:30:23.757Z,3.84
2015-10-26T00:30:36.072Z,3.92
2015-10-26T00:30:48.369Z,3.92
2015-10-26T00:31:00.666Z,3.88
2015-10-26T00:31:12.994Z,3.94
2015-10-26T00:31:25.307Z,3.98
2015-10-26T00:31:37.638Z,3.95
2015-10-26T00:31:49.950Z,3.94
2015-10-26T00:32:02.279Z,3.86
2015-10-26T00:32:14.622Z,3.84
2015-10-26T00:32:26.919Z,3.88
2015-10-26T00:32:39.218Z,3.86
2015-10-26T00:32:51.531Z,3.87
2015-10-26T00:33:03.827Z,3.91
2015-10-26T00:33:16.124Z,3.81
2015-10-26T00:33:28.265Z,3.94
2015-10-26T00:33:40.580Z,3.88
2015-10-26T00:33:52.877Z,3.84
2015-10-26T00:34:05.190Z,3.91
2015-10-26T00:34:17.487Z,3.88
2015-10-26T00:34:29.784Z,3.78
2015-10-26T00:34:42.098Z,3.81
2015-10-26T00:34:54.395Z,3.81
2015-10-26T00:35:06.707Z,3.81
2015-10-26T00:35:19.020Z,3.81
2015-10-26T00:35:31.332Z,3.87
2015-10-26T00:35:43.679Z,3.83
2015-10-26T00:35:56.007Z,3.88
2015-10-26T00:36:08.335Z,3.91
2015-10-26T00:36:20.664Z,3.91
2015-10-26T00:36:32.960Z,3.91
2015-10-26T00:36:45.276Z,3.91
2015-10-26T00:36:57.573Z,3.83
2015-10-26T00:37:09.870Z,3.94
2015-10-26T00:37:22.182Z,3.8
2015-10-26T00:37:34.479Z,3.94
2015-10-26T00:37:46.779Z,3.88
2015-10-26T00:37:59.091Z,3.86
2015-10-26T00:38:11.404Z,3.92
2015-10-26T00:38:23.701Z,3.92
2015-10-26T00:38:35.998Z,3.81
2015-10-26T00:38:48.298Z,3.83
2015-10-26T00:39:00.610Z,3.77
2015-10-26T00:39:12.938Z,3.81
2015-10-26T00:39:25.251Z,3.86
2015-10-26T00:39:37.579Z,3.86
2015-10-26T00:39:49.925Z,3.91
2015-10-26T00:40:02.253Z,3.83
2015-10-26T00:40:14.581Z,3.78
2015-10-26T00:40:26.878Z,3.8
2015-10-26T00:40:39.175Z,3.86
2015-10-26T00:40:51.490Z,3.91
2015-10-26T00:41:03.787Z,3.83
2015-10-26T00:41:16.084Z,3.91
2015-10-26T00:41:28.381Z,3.8
2015-10-26T00:41:40.693Z,3.84
2015-10-26T00:41:52.993Z,3.81
2015-10-26T00:42:05.306Z,3.8
2015-10-26T00:42:17.602Z,3.8
2015-10-26T00:42:29.899Z,3.8
2015-10-26T00:42:42.196Z,3.84
2015-10-26T00:42:54.527Z,3.86
2015-10-26T00:43:06.824Z,3.81
2015-10-26T00:43:19.168Z,3.8
2015-10-26T00:43:31.340Z,3.74
2015-10-26T00:43:43.668Z,3.77
2015-10-26T00:43:55.982Z,3.81
2015-10-26T00:44:08.326Z,3.77
2015-10-26T00:44:20.623Z,3.77
2015-10-26T00:44:32.920Z,3.81
2015-10-26T00:44:45.217Z,3.76
2015-10-26T00:44:57.532Z,3.76
2015-10-26T00:45:09.829Z,3.83
2015-10-26T00:45:22.126Z,3.92
2015-10-26T00:45:34.439Z,3.81
2015-10-26T00:45:46.735Z,3.88
2015-10-26T00:45:59.051Z,3.87
2015-10-26T00:46:11.348Z,3.84
2015-10-26T00:46:23.645Z,3.88
2015-10-26T00:46:35.957Z,3.87
2015-10-26T00:46:48.270Z,3.87
2015-10-26T00:47:00.585Z,3.84
2015-10-26T00:47:12.898Z,3.98
2015-10-26T00:47:25.210Z,3.86
2015-10-26T00:47:37.538Z,3.95
2015-10-26T00:47:49.929Z,4.01
2015-10-26T00:48:02.259Z,3.95
2015-10-26T00:48:14.603Z,3.94
2015-10-26T00:48:26.884Z,3.98
2015-10-26T00:48:39.197Z,3.98
2015-10-26T00:48:51.509Z,4.01
2015-10-26T00:49:03.809Z,4.02
2015-10-26T00:49:16.121Z,4.08
2015-10-26T00:49:28.418Z,4.02
2015-10-26T00:49:40.715Z,4.1
2015-10-26T00:49:53.012Z,4.04
2015-10-26T00:50:05.328Z,4.05
2015-10-26T00:50:17.624Z,4.04
2015-10-26T00:50:29.921Z,4.05
2015-10-26T00:50:42.234Z,3.98
2015-10-26T00:50:54.531Z,4.1
2015-10-26T00:51:06.846Z,4.05
2015-10-26T00:51:19.159Z,4.02
2015-10-26T00:51:31.471Z,3.95
2015-10-26T00:51:43.799Z,3.95
2015-10-26T00:51:56.127Z,3.95
2015-10-26T00:52:08.474Z,3.87
2015-10-26T00:52:20.771Z,3.88
2015-10-26T00:52:33.068Z,3.87
2015-10-26T00:52:45.365Z,3.88
2015-10-26T00:52:57.662Z,3.87
2015-10-26T00:53:09.977Z,3.86
2015-10-26T00:53:22.274Z,3.87
2015-10-26T00:53:34.571Z,3.94
2015-10-26T00:53:46.915Z,3.91
2015-10-26T00:53:59.212Z,3.84
2015-10-26T00:54:11.495Z,3.91
2015-10-26T00:54:23.792Z,3.98
2015-10-26T00:54:36.089Z,3.99
2015-10-26T00:54:48.385Z,3.98
2015-10-26T00:55:00.698Z,4.02
2015-10-26T00:55:13.028Z,3.98
2015-10-26T00:55:25.341Z,3.99
2015-10-26T00:55:37.653Z,3.96
2015-10-26T00:55:49.981Z,3.95
2015-10-26T00:56:02.309Z,3.99
2015-10-26T00:56:14.641Z,3.96
2015-10-26T00:56:26.970Z,3.96
2015-10-26T00:56:39.266Z,3.94
2015-10-26T00:56:51.579Z,3.99
2015-10-26T00:57:03.860Z,3.94
2015-10-26T00:57:16.190Z,3.98
2015-10-26T00:57:28.472Z,3.99
2015-10-26T00:57:40.768Z,3.99
2015-10-26T00:57:53.065Z,3.95
2015-10-26T00:58:05.378Z,3.95
2015-10-26T00:58:17.678Z,4.02
2015-10-26T00:58:29.975Z,3.96
2015-10-26T00:58:42.271Z,3.91
2015-10-26T00:58:54.600Z,3.86
2015-10-26T00:59:06.912Z,3.84
2015-10-26T00:59:19.212Z,3.94
2015-10-26T00:59:31.540Z,3.84
2015-10-26T00:59:43.868Z,3.95
2015-10-26T00:59:56.196Z,3.87
2015-10-26T01:00:08.524Z,3.94
2015-10-26T01:00:20.856Z,3.91
2015-10-26T01:00:33.215Z,3.91
2015-10-26T01:00:45.543Z,3.84
2015-10-26T01:00:57.856Z,4.01
2015-10-26T01:01:10.137Z,4.05
2015-10-26T01:01:22.436Z,4.12
2015-10-26T01:01:34.748Z,4.08
2015-10-26T01:01:47.045Z,4.02
2015-10-26T01:01:59.342Z,4.01
2015-10-26T01:02:11.639Z,4.08
2015-10-26T01:02:23.939Z,4.2
2015-10-26T01:02:36.236Z,4.17
2015-10-26T01:02:48.548Z,4.17
2015-10-26T01:03:00.845Z,4.3
2015-10-26T01:03:13.157Z,4.32
2015-10-26T01:03:25.473Z,4.31
2015-10-26T01:03:37.785Z,4.28
2015-10-26T01:03:50.098Z,4.26
2015-10-26T01:04:02.410Z,4.28
2015-10-26T01:04:14.723Z,4.3
2015-10-26T01:04:27.053Z,4.31
2015-10-26T01:04:39.381Z,4.3
2015-10-26T01:04:51.709Z,4.22
2015-10-26T01:05:04.053Z,4.22
2015-10-26T01:05:16.381Z,4.31
2015-10-26T01:05:28.681Z,4.2
2015-10-26T01:05:40.994Z,4.24
2015-10-26T01:05:53.290Z,4.2
2015-10-26T01:06:05.587Z,4.19
2015-10-26T01:06:17.900Z,4.2
2015-10-26T01:06:30.200Z,4.24
2015-10-26T01:06:42.512Z,4.23
2015-10-26T01:06:54.809Z,4.17
2015-10-26T01:07:07.122Z,4.19
2015-10-26T01:07:19.418Z,4.22
2015-10-26T01:07:31.718Z,4.22
2015-10-26T01:07:44.031Z,4.19
2015-10-26T01:07:56.343Z,4.22
2015-10-26T01:08:08.656Z,4.19
2015-10-26T01:08:20.984Z,4.19
2015-10-26T01:08:33.283Z,4.2
2015-10-26T01:08:45.611Z,4.34
2015-10-26T01:08:57.939Z,4.14
2015-10-26T01:09:10.267Z,4.17
2015-10-26T01:09:22.627Z,4.31
2015-10-26T01:09:34.912Z,4.23
2015-10-26T01:09:47.224Z,4.32
2015-10-26T01:09:59.521Z,4.32
2015-10-26T01:10:11.818Z,4.44
2015-10-26T01:10:24.115Z,4.44
2015-10-26T01:10:36.445Z,4.4
2015-10-26T01:10:48.742Z,4.38
2015-10-26T01:11:01.039Z,4.49
2015-10-26T01:11:13.351Z,4.55
2015-10-26T01:11:25.664Z,4.48
2015-10-26T01:11:37.964Z,4.44
2015-10-26T01:11:50.261Z,4.38
2015-10-26T01:12:02.557Z,4.49
2015-10-26T01:12:14.870Z,4.53
2015-10-26T01:12:27.198Z,4.6
2015-10-26T01:12:39.513Z,4.59
2015-10-26T01:12:51.841Z,4.58
2015-10-26T01:13:04.169Z,4.52
2015-10-26T01:13:16.513Z,4.56
2015-10-26T01:13:28.856Z,4.53
2015-10-26T01:13:41.157Z,4.55
2015-10-26T01:13:53.454Z,4.52
2015-10-26T01:14:05.751Z,4.56
2015-10-26T01:14:18.048Z,4.58
2015-10-26T01:14:30.360Z,4.6
2015-10-26T01:14:42.659Z,4.6
2015-10-26T01:14:54.987Z,4.67
2015-10-26T01:15:07.284Z,4.62
2015-10-26T01:15:19.597Z,4.66
2015-10-26T01:15:31.912Z,4.6
2015-10-26T01:15:44.225Z,4.63
2015-10-26T01:15:56.537Z,4.53
2015-10-26T01:16:08.865Z,4.66
2015-10-26T01:16:21.193Z,4.55
2015-10-26T01:16:33.525Z,4.58
2015-10-26T01:16:45.884Z,4.67
2015-10-26T01:16:58.181Z,4.6
2015-10-26T01:17:10.478Z,4.71
2015-10-26T01:17:22.790Z,4.6
2015-10-26T01:17:35.089Z,4.66
2015-10-26T01:17:47.386Z,4.59
2015-10-26T01:17:59.777Z,4.6
2015-10-26T01:18:12.073Z,4.53
2015-10-26T01:18:24.370Z,4.62
2015-10-26T01:18:36.670Z,4.55
2015-10-26T01:18:48.983Z,4.59
2015-10-26T01:19:01.280Z,4.56
2015-10-26T01:19:13.576Z,4.5
2015-10-26T01:19:25.889Z,4.58
2015-10-26T01:19:38.203Z,4.49
2015-10-26T01:19:50.516Z,4.55
2015-10-26T01:20:02.828Z,4.42
2015-10-26T01:20:15.157Z,4.41
2015-10-26T01:20:27.485Z,4.41
2015-10-26T01:20:39.831Z,4.52
2015-10-26T01:20:52.144Z,4.41
2015-10-26T01:21:04.441Z,4.38
2015-10-26T01:21:16.738Z,4.49
2015-10-26T01:21:29.035Z,4.49
2015-10-26T01:21:41.350Z,4.42
2015-10-26T01:21:53.647Z,4.45
2015-10-26T01:22:05.944Z,4.44
2015-10-26T01:22:18.256Z,4.44
2015-10-26T01:22:30.553Z,4.42
2015-10-26T01:22:42.853Z,4.4
2015-10-26T01:22:55.150Z,4.41
2015-10-26T01:23:07.447Z,4.38
2015-10-26T01:23:19.759Z,4.37
2015-10-26T01:23:32.087Z,4.44
2015-10-26T01:23:44.402Z,4.56
2015-10-26T01:23:56.714Z,4.58
2015-10-26T01:24:09.027Z,4.55
2015-10-26T01:24:21.355Z,4.55
2015-10-26T01:24:33.683Z,4.58
2015-10-26T01:24:46.031Z,4.62
2015-10-26T01:24:58.359Z,4.66
2015-10-26T01:25:10.656Z,4.62
2015-10-26T01:25:22.953Z,4.66
2015-10-26T01:25:35.265Z,4.66
2015-10-26T01:25:47.564Z,4.58
2015-10-26T01:25:59.892Z,4.58
2015-10-26T01:26:12.189Z,4.56
2015-10-26T01:26:24.486Z,4.59
2015-10-26T01:26:36.783Z,4.62
2015-10-26T01:26:49.098Z,4.56
2015-10-26T01:27:01.395Z,4.6
2015-10-26T01:27:13.692Z,4.59
2015-10-26T01:27:25.989Z,4.49
2015-10-26T01:27:38.302Z,4.56
2015-10-26T01:27:50.616Z,4.59
2015-10-26T01:28:02.929Z,4.49
2015-10-26T01:28:15.241Z,4.49
2015-10-26T01:28:27.569Z,4.52
2015-10-26T01:28:39.897Z,4.55
2015-10-26T01:28:52.229Z,4.56
2015-10-26T01:29:04.511Z,4.58
2015-10-26T01:29:16.792Z,4.59
2015-10-26T01:29:29.089Z,4.56
2015-10-26T01:29:41.370Z,4.66
2015-10-26T01:29:53.669Z,4.59
2015-10-26T01:30:05.981Z,4.62
2015-10-26T01:30:18.278Z,4.63
2015-10-26T01:30:30.591Z,4.56
2015-10-26T01:30:42.919Z,4.55
2015-10-26T01:30:55.219Z,4.59
2015-10-26T01:31:07.516Z,4.6
2015-10-26T01:31:19.828Z,4.55
2015-10-26T01:31:32.125Z,4.53
2015-10-26T01:31:44.438Z,4.55
2015-10-26T01:31:56.752Z,4.59
2015-10-26T01:32:09.065Z,4.62
2015-10-26T01:32:21.377Z,4.58
2015-10-26T01:32:33.721Z,4.62
2015-10-26T01:32:46.049Z,4.58
2015-10-26T01:32:58.380Z,4.58
2015-10-26T01:33:10.724Z,4.53
2015-10-26T01:33:23.068Z,4.59
2015-10-26T01:33:35.396Z,4.66
2015-10-26T01:33:47.693Z,4.62
2015-10-26T01:33:59.992Z,4.71
2015-10-26T01:34:12.289Z,4.73
2015-10-26T01:34:24.602Z,4.68
2015-10-26T01:34:36.899Z,4.73
2015-10-26T01:34:49.196Z,4.7
2015-10-26T01:35:01.495Z,4.77
2015-10-26T01:35:13.808Z,4.77
2015-10-26T01:35:26.120Z,4.8
2015-10-26T01:35:38.417Z,4.68
2015-10-26T01:35:50.714Z,4.75
2015-10-26T01:36:03.014Z,4.7
2015-10-26T01:36:15.327Z,4.67
2015-10-26T01:36:27.639Z,4.71
2015-10-26T01:36:39.952Z,4.7
2015-10-26T01:36:52.108Z,4.7
2015-10-26T01:37:04.438Z,4.68
2015-10-26T01:37:16.782Z,4.63
2015-10-26T01:37:29.125Z,4.59
2015-10-26T01:37:41.454Z,4.63
2015-10-26T01:37:53.782Z,4.56
2015-10-26T01:38:06.082Z,4.67
2015-10-26T01:38:18.363Z,4.6
2015-10-26T01:38:30.675Z,4.62
2015-10-26T01:38:42.972Z,4.58
2015-10-26T01:38:55.285Z,4.56
2015-10-26T01:39:07.600Z,4.6
2015-10-26T01:39:19.897Z,4.66
2015-10-26T01:39:32.194Z,4.66
2015-10-26T01:39:44.506Z,4.55
2015-10-26T01:39:56.803Z,4.66
2015-10-26T01:40:09.102Z,4.56
2015-10-26T01:40:21.415Z,4.66
2015-10-26T01:40:33.727Z,4.66
2015-10-26T01:40:46.024Z,4.67
2015-10-26T01:40:58.337Z,4.67
2015-10-26T01:41:10.511Z,4.6
2015-10-26T01:41:22.824Z,4.59
2015-10-26T01:41:35.152Z,4.56
2015-10-26T01:41:47.480Z,4.56
2015-10-26T01:41:59.808Z,4.58
2015-10-26T01:42:12.155Z,4.6
2015-10-26T01:42:24.452Z,4.56
2015-10-26T01:42:36.749Z,4.59
2015-10-26T01:42:49.093Z,4.6
2015-10-26T01:43:01.389Z,4.55
2015-10-26T01:43:13.704Z,4.5
2015-10-26T01:43:26.001Z,4.52
2015-10-26T01:43:38.313Z,4.49
2015-10-26T01:43:50.610Z,4.55
2015-10-26T01:44:02.923Z,4.55
2015-10-26T01:44:15.223Z,4.56
2015-10-26T01:44:27.535Z,4.59
2015-10-26T01:44:39.832Z,4.55
2015-10-26T01:44:52.144Z,4.58
2015-10-26T01:45:04.457Z,4.6
2015-10-26T01:45:16.788Z,4.58
2015-10-26T01:45:29.101Z,4.6
2015-10-26T01:45:41.429Z,4.58
2015-10-26T01:45:53.757Z,4.58
2015-10-26T01:46:06.101Z,4.6
2015-10-26T01:46:18.400Z,4.53
2015-10-26T01:46:30.697Z,4.62
2015-10-26T01:46:43.010Z,4.58
2015-10-26T01:46:55.307Z,4.56
2015-10-26T01:47:07.619Z,4.58
2015-10-26T01:47:19.935Z,4.53
2015-10-26T01:47:32.232Z,4.56
2015-10-26T01:47:44.528Z,4.62
2015-10-26T01:47:56.841Z,4.6
2015-10-26T01:48:09.138Z,4.59
2015-10-26T01:48:21.453Z,4.56
2015-10-26T01:48:33.735Z,4.53
2015-10-26T01:48:46.063Z,4.58
2015-10-26T01:48:58.375Z,4.56
2015-10-26T01:49:10.688Z,4.55
2015-10-26T01:49:23.018Z,4.55
2015-10-26T01:49:35.330Z,4.5
2015-10-26T01:49:47.674Z,4.55
2015-10-26T01:50:00.002Z,4.53
2015-10-26T01:50:12.330Z,4.53
2015-10-26T01:50:24.677Z,4.53
2015-10-26T01:50:37.005Z,4.62
2015-10-26T01:50:49.302Z,4.56
2015-10-26T01:51:01.599Z,4.55
2015-10-26T01:51:13.911Z,4.58
2015-10-26T01:51:26.211Z,4.63
2015-10-26T01:51:38.524Z,4.63
2015-10-26T01:51:50.821Z,4.62
2015-10-26T01:52:03.118Z,4.6
2015-10-26T01:52:15.430Z,4.66
2015-10-26T01:52:27.761Z,4.74
2015-10-26T01:52:40.058Z,4.68
2015-10-26T01:52:52.386Z,4.68
2015-10-26T01:53:04.714Z,4.73
2015-10-26T01:53:17.042Z,4.75
2015-10-26T01:53:29.358Z,4.68
2015-10-26T01:53:41.655Z,4.68
2015-10-26T01:53:53.952Z,4.71
2015-10-26T01:54:06.264Z,4.7
2015-10-26T01:54:18.592Z,4.68
2015-10-26T01:54:30.908Z,4.71
2015-10-26T01:54:43.205Z,4.73
2015-10-26T01:54:55.502Z,4.67
2015-10-26T01:55:07.830Z,4.62
2015-10-26T01:55:20.142Z,4.62
2015-10-26T01:55:32.457Z,4.62
2015-10-26T01:55:44.769Z,4.66
2015-10-26T01:55:57.097Z,4.58
2015-10-26T01:56:09.425Z,4.56
2015-10-26T01:56:21.754Z,4.56
2015-10-26T01:56:34.085Z,4.58
2015-10-26T01:56:46.444Z,4.59
2015-10-26T01:56:58.772Z,4.5
2015-10-26T01:57:10.600Z,4.56
2015-10-26T01:57:22.772Z,4.53
2015-10-26T01:57:34.994Z,4.53
2015-10-26T01:57:47.431Z,4.62
2015-10-26T01:58:00.228Z,4.62
2015-10-26T01:58:12.541Z,4.56
2015-10-26T01:58:24.838Z,4.67
2015-10-26T01:58:37.137Z,4.53
2015-10-26T01:58:49.465Z,4.56
2015-10-26T01:59:01.762Z,4.62
2015-10-26T01:59:14.058Z,4.6
2015-10-26T01:59:26.199Z,4.56
2015-10-26T01:59:38.515Z,4.59
2015-10-26T01:59:50.827Z,4.53
2015-10-26T02:00:03.140Z,4.58
2015-10-26T02:00:15.483Z,4.59
2015-10-26T02:00:27.811Z,4.56
2015-10-26T02:00:40.142Z,4.58
2015-10-26T02:00:52.470Z,4.58
2015-10-26T02:01:04.767Z,4.6
2015-10-26T02:01:17.063Z,4.6
2015-10-26T02:01:29.376Z,4.6
2015-10-26T02:01:41.676Z,4.68
2015-10-26T02:01:53.973Z,4.66
2015-10-26T02:02:06.270Z,4.66
2015-10-26T02:02:18.598Z,4.68
2015-10-26T02:02:30.913Z,4.7
2015-10-26T02:02:43.210Z,4.68
2015-10-26T02:02:55.507Z,4.73
2015-10-26T02:03:07.804Z,4.62
2015-10-26T02:03:20.132Z,4.7
2015-10-26T02:03:32.432Z,4.6
2015-10-26T02:03:44.729Z,4.59
2015-10-26T02:03:57.041Z,4.63
2015-10-26T02:04:09.338Z,4.67
2015-10-26T02:04:21.651Z,4.63
2015-10-26T02:04:33.981Z,4.67
2015-10-26T02:04:46.309Z,4.71
2015-10-26T02:04:58.621Z,4.6
2015-10-26T02:05:10.903Z,4.59
2015-10-26T02:05:23.199Z,4.58
2015-10-26T02:05:35.500Z,4.52
2015-10-26T02:05:47.813Z,4.52
2015-10-26T02:06:00.125Z,4.59
2015-10-26T02:06:12.422Z,4.58
2015-10-26T02:06:24.782Z,4.55
2015-10-26T02:06:37.096Z,4.56
2015-10-26T02:06:49.393Z,4.56
2015-10-26T02:07:01.690Z,4.55
2015-10-26T02:07:14.002Z,4.62
2015-10-26T02:07:26.315Z,4.56
2015-10-26T02:07:38.614Z,4.55
2015-10-26T02:07:50.926Z,4.53
2015-10-26T02:08:03.239Z,4.55
2015-10-26T02:08:15.567Z,4.59
2015-10-26T02:08:27.879Z,4.5
2015-10-26T02:08:40.210Z,4.62
2015-10-26T02:08:52.539Z,4.56
2015-10-26T02:09:04.867Z,4.55
2015-10-26T02:09:17.164Z,4.63
2015-10-26T02:09:29.476Z,4.55
2015-10-26T02:09:41.777Z,4.55
2015-10-26T02:09:53.933Z,4.58
2015-10-26T02:10:06.230Z,4.59
2015-10-26T02:10:18.543Z,4.53
2015-10-26T02:10:30.839Z,4.53
2015-10-26T02:10:43.154Z,4.62
2015-10-26T02:10:55.466Z,4.56
2015-10-26T02:11:07.779Z,4.56
2015-10-26T02:11:20.107Z,4.58
2015-10-26T02:11:32.404Z,4.58
2015-10-26T02:11:44.751Z,4.63
2015-10-26T02:11:57.063Z,4.6
2015-10-26T02:12:09.376Z,4.6
2015-10-26T02:12:21.673Z,4.53
2015-10-26T02:12:33.969Z,4.55
2015-10-26T02:12:46.268Z,4.49
2015-10-26T02:12:58.581Z,4.56
2015-10-26T02:13:10.862Z,4.53
2015-10-26T02:13:23.175Z,4.59
2015-10-26T02:13:35.471Z,4.56
2015-10-26T02:13:47.788Z,4.59
2015-10-26T02:14:00.085Z,4.55
2015-10-26T02:14:12.382Z,4.56
2015-10-26T02:14:24.694Z,4.53
2015-10-26T02:14:37.007Z,4.59
2015-10-26T02:14:49.321Z,4.59
2015-10-26T02:15:01.649Z,4.6
2015-10-26T02:15:13.946Z,4.63
2015-10-26T02:15:26.274Z,4.58
2015-10-26T02:15:38.602Z,4.56
2015-10-26T02:15:50.949Z,4.63
2015-10-26T02:16:03.262Z,4.59
2015-10-26T02:16:15.590Z,4.62
2015-10-26T02:16:27.887Z,4.62
2015-10-26T02:16:40.184Z,4.66
2015-10-26T02:16:52.499Z,4.68
2015-10-26T02:17:04.796Z,4.67
2015-10-26T02:17:17.108Z,4.67
2015-10-26T02:17:29.405Z,4.67
2015-10-26T02:17:41.702Z,4.63
2015-10-26T02:17:54.017Z,4.66
2015-10-26T02:18:06.314Z,4.66
2015-10-26T02:18:18.626Z,4.55
2015-10-26T02:18:30.939Z,4.56
2015-10-26T02:18:43.251Z,4.6
2015-10-26T02:18:55.567Z,4.6
2015-10-26T02:19:07.879Z,4.62
2015-10-26T02:19:20.192Z,4.67
2015-10-26T02:19:32.379Z,4.52
2015-10-26T02:19:44.707Z,4.62
2015-10-26T02:19:57.037Z,4.6
2015-10-26T02:20:09.350Z,4.53
2015-10-26T02:20:21.647Z,4.53
2015-10-26T02:20:33.944Z,4.59
2015-10-26T02:20:46.256Z,4.56
2015-10-26T02:20:58.572Z,4.53
2015-10-26T02:21:10.868Z,4.53
2015-10-26T02:21:23.165Z,4.55
2015-10-26T02:21:35.462Z,4.55
2015-10-26T02:21:47.790Z,4.52
2015-10-26T02:22:00.090Z,4.56
2015-10-26T02:22:12.387Z,4.52
2015-10-26T02:22:24.684Z,4.5
2015-10-26T02:22:36.996Z,4.58
2015-10-26T02:22:49.309Z,4.53
2015-10-26T02:23:01.625Z,4.53
2015-10-26T02:23:13.938Z,4.52
2015-10-26T02:23:26.266Z,4.56
2015-10-26T02:23:38.579Z,4.48
2015-10-26T02:23:50.922Z,4.48
2015-10-26T02:24:03.268Z,4.52
2015-10-26T02:24:15.565Z,4.45
2015-10-26T02:24:27.862Z,4.49
2015-10-26T02:24:40.159Z,4.49
2015-10-26T02:24:52.471Z,4.5
2015-10-26T02:25:04.786Z,4.48
2015-10-26T02:25:17.083Z,4.59
2015-10-26T02:25:29.379Z,4.55
2015-10-26T02:25:41.692Z,4.56
2015-10-26T02:25:53.989Z,4.56
2015-10-26T02:26:06.289Z,4.49
2015-10-26T02:26:18.586Z,4.55
2015-10-26T02:26:30.898Z,4.56
2015-10-26T02:26:43.211Z,4.56
2015-10-26T02:26:55.523Z,4.55
2015-10-26T02:27:07.839Z,4.53
2015-10-26T02:27:20.151Z,4.55
2015-10-26T02:27:32.464Z,4.56
2015-10-26T02:27:44.807Z,4.58
2015-10-26T02:27:57.135Z,4.56
2015-10-26T02:28:09.466Z,4.56
2015-10-26T02:28:21.778Z,4.55
2015-10-26T02:28:34.075Z,4.55
2015-10-26T02:28:46.372Z,4.58
2015-10-26T02:28:58.669Z,4.53
2015-10-26T02:29:10.984Z,4.5
2015-10-26T02:29:23.281Z,4.52
2015-10-26T02:29:35.578Z,4.5
2015-10-26T02:29:47.890Z,4.49
2015-10-26T02:30:00.203Z,4.49
2015-10-26T02:30:12.519Z,4.48
2015-10-26T02:30:24.832Z,4.5
2015-10-26T02:30:37.144Z,4.45
2015-10-26T02:30:49.488Z,4.53
2015-10-26T02:31:01.801Z,4.59
2015-10-26T02:31:14.100Z,4.55
2015-10-26T02:31:26.412Z,4.5
2015-10-26T02:31:38.709Z,4.53
2015-10-26T02:31:51.006Z,4.48
2015-10-26T02:32:03.318Z,4.41
2015-10-26T02:32:15.618Z,4.45
2015-10-26T02:32:27.915Z,4.48
2015-10-26T02:32:40.212Z,4.48
2015-10-26T02:32:52.540Z,4.49
2015-10-26T02:33:04.853Z,4.45
2015-10-26T02:33:17.168Z,4.44
2015-10-26T02:33:29.481Z,4.44
2015-10-26T02:33:41.809Z,4.41
2015-10-26T02:33:54.152Z,4.4
2015-10-26T02:34:06.481Z,4.4
2015-10-26T02:34:18.780Z,4.44
2015-10-26T02:34:31.093Z,4.44
2015-10-26T02:34:43.390Z,4.38
2015-10-26T02:34:55.687Z,4.4
2015-10-26T02:35:07.999Z,4.4
2015-10-26T02:35:20.298Z,4.38
2015-10-26T02:35:32.595Z,4.34
2015-10-26T02:35:44.892Z,4.41
2015-10-26T02:35:57.204Z,4.32
2015-10-26T02:36:09.501Z,4.31
2015-10-26T02:36:21.801Z,4.34
2015-10-26T02:36:34.098Z,4.37
2015-10-26T02:36:46.410Z,4.41
2015-10-26T02:36:58.723Z,4.48
2015-10-26T02:37:11.035Z,4.41
2015-10-26T02:37:23.351Z,4.38
2015-10-26T02:37:35.663Z,4.45
2015-10-26T02:37:47.992Z,4.49
2015-10-26T02:38:00.335Z,4.49
2015-10-26T02:38:12.663Z,4.48
2015-10-26T02:38:25.009Z,4.49
2015-10-26T02:38:37.337Z,4.49
2015-10-26T02:38:49.681Z,4.42
2015-10-26T02:39:01.947Z,4.45
2015-10-26T02:39:14.244Z,4.48
2015-10-26T02:39:26.544Z,4.42
2015-10-26T02:39:38.826Z,4.44
2015-10-26T02:39:51.123Z,4.38
2015-10-26T02:40:03.419Z,4.41
2015-10-26T02:40:15.716Z,4.45
2015-10-26T02:40:28.015Z,4.44
2015-10-26T02:40:40.328Z,4.42
2015-10-26T02:40:52.625Z,4.38
2015-10-26T02:41:04.937Z,4.4
2015-10-26T02:41:17.234Z,4.42
2015-10-26T02:41:29.534Z,4.42
2015-10-26T02:41:41.846Z,4.4
2015-10-26T02:41:54.159Z,4.41
2015-10-26T02:42:06.471Z,4.4
2015-10-26T02:42:18.799Z,4.42
2015-10-26T02:42:31.131Z,4.44
2015-10-26T02:42:43.474Z,4.38
2015-10-26T02:42:55.818Z,4.38
2015-10-26T02:43:08.115Z,4.44
2015-10-26T02:43:20.412Z,4.4
2015-10-26T02:43:32.711Z,4.42
2015-10-26T02:43:45.023Z,4.44
2015-10-26T02:43:57.320Z,4.41
2015-10-26T02:44:09.617Z,4.44
2015-10-26T02:44:21.929Z,4.42